createdAt,value
2023-02-03T00:00:22.949Z,-0.30
2023-02-03T00:02:51.018Z,-0.34
2023-02-03T00:05:18.995Z,-0.33
2023-02-03T00:07:47.378Z,-0.46
2023-02-03T00:10:15.560Z,-0.24
2023-02-03T00:12:43.559Z,-0.29
2023-02-03T00:15:11.693Z,-0.33
2023-02-03T00:17:39.614Z,-1.07
2023-02-03T00:20:08.282Z,-0.46
2023-02-03T00:22:36.935Z,-0.63
2023-02-03T00:25:05.369Z,-0.30
2023-02-03T00:27:34.048Z,-0.56
2023-02-03T00:30:02.232Z,-0.10
2023-02-03T00:32:30.355Z,-0.15
2023-02-03T00:34:58.623Z,-0.65
2023-02-03T00:37:27.018Z,-0.54
2023-02-03T00:39:54.985Z,-0.22
2023-02-03T00:42:23.201Z,-0.73
2023-02-03T00:44:51.405Z,-0.16
2023-02-03T00:47:19.377Z,-0.22
2023-02-03T00:49:47.458Z,-0.51
2023-02-03T00:52:15.461Z,-0.21
2023-02-03T00:54:43.574Z,-0.20
2023-02-03T00:57:11.636Z,-0.24
2023-02-03T00:59:41.235Z,-0.24
2023-02-03T01:02:10.426Z,-0.54
2023-02-03T01:04:38.680Z,-0.32
2023-02-03T01:07:06.912Z,-0.31
2023-02-03T01:09:37.893Z,-0.28
2023-02-03T01:12:06.620Z,-0.25
2023-02-03T01:14:35.862Z,-0.22
2023-02-03T01:17:05.455Z,-0.30
2023-02-03T01:19:33.968Z,-0.25
2023-02-03T01:22:02.708Z,-0.26
2023-02-03T01:24:31.770Z,-0.42
2023-02-03T01:26:59.776Z,-0.27
2023-02-03T01:29:31.183Z,-0.26
2023-02-03T01:31:59.560Z,-0.56
2023-02-03T01:34:28.948Z,-0.34
2023-02-03T01:36:57.183Z,-0.93
2023-02-03T01:39:26.526Z,-0.44
2023-02-03T01:41:56.762Z,-0.49
2023-02-03T01:44:43.985Z,-0.48
2023-02-03T01:47:27.829Z,-0.52
2023-02-03T01:50:37.432Z,-0.53
2023-02-03T01:53:13.545Z,-0.66
2023-02-03T01:55:48.408Z,-0.56
2023-02-03T01:58:26.051Z,-0.53
2023-02-03T02:00:55.925Z,-0.53
2023-02-03T02:03:46.473Z,-0.81
2023-02-03T02:06:15.998Z,-0.72
2023-02-03T02:08:48.623Z,-0.49
2023-02-03T02:11:18.744Z,-0.70
2023-02-03T02:13:48.736Z,-0.40
2023-02-03T02:16:45.911Z,-0.29
2023-02-03T02:19:51.701Z,-0.31
2023-02-03T02:22:57.865Z,-0.38
2023-02-03T02:25:57.630Z,-0.50
2023-02-03T02:28:28.959Z,-0.46
2023-02-03T02:31:06.987Z,-0.54
2023-02-03T02:34:05.086Z,-0.51
2023-02-03T02:36:54.291Z,-0.61
2023-02-03T02:40:24.489Z,-0.60
2023-02-03T02:43:13.927Z,-0.58
2023-02-03T02:46:00.462Z,-0.60
2023-02-03T02:48:56.411Z,-0.59
2023-02-03T02:51:25.164Z,-0.91
2023-02-03T02:53:59.605Z,-0.53
2023-02-03T02:56:30.693Z,-0.51
2023-02-03T02:59:04.457Z,-0.51
2023-02-03T03:01:32.784Z,-0.49
2023-02-03T03:04:05.980Z,-0.82
2023-02-03T03:06:51.141Z,-0.45
2023-02-03T03:09:25.323Z,-0.48
2023-02-03T03:12:03.605Z,-0.72
2023-02-03T03:14:34.072Z,-0.73
2023-02-03T03:17:06.471Z,-0.49
2023-02-03T03:19:41.921Z,-1.42
2023-02-03T03:22:15.763Z,-0.56
2023-02-03T03:24:58.584Z,-0.51
2023-02-03T03:27:37.069Z,-0.51
2023-02-03T03:30:23.369Z,-0.77
2023-02-03T03:32:51.970Z,-0.50
2023-02-03T03:35:20.137Z,-0.48
2023-02-03T03:38:04.138Z,-0.44
2023-02-03T03:40:45.312Z,-0.45
2023-02-03T03:43:24.114Z,-0.74
2023-02-03T03:46:15.062Z,-0.42
2023-02-03T03:48:55.251Z,-0.41
2023-02-03T03:52:01.068Z,-0.40
2023-02-03T03:54:31.484Z,-0.68
2023-02-03T03:57:49.618Z,-0.38
2023-02-03T04:00:22.348Z,-0.35
2023-02-03T04:02:56.386Z,-0.41
2023-02-03T04:05:25.576Z,-0.63
2023-02-03T04:07:53.802Z,-0.68
2023-02-03T04:10:37.185Z,-0.37
2023-02-03T04:13:07.108Z,-0.33
2023-02-03T04:15:35.308Z,-0.34
2023-02-03T04:18:04.921Z,-0.37
2023-02-03T04:20:34.243Z,-0.34
2023-02-03T04:23:02.153Z,-0.38
2023-02-03T04:25:30.537Z,-0.54
2023-02-03T04:27:58.500Z,-0.67
2023-02-03T04:30:26.882Z,-0.48
2023-02-03T04:32:55.135Z,-0.35
2023-02-03T04:35:23.492Z,-0.67
2023-02-03T04:37:51.471Z,-0.71
2023-02-03T04:40:19.736Z,-0.56
2023-02-03T04:42:47.624Z,-0.47
2023-02-03T04:45:15.550Z,-0.73
2023-02-03T04:47:43.524Z,-0.42
2023-02-03T04:50:11.383Z,-0.45
2023-02-03T04:52:39.283Z,-0.47
2023-02-03T04:55:08.334Z,-0.47
2023-02-03T04:57:39.234Z,-0.50
2023-02-03T05:00:08.189Z,-0.53
2023-02-03T05:02:36.459Z,-0.84
2023-02-03T05:05:04.831Z,-0.59
2023-02-03T05:07:32.728Z,-0.49
2023-02-03T05:10:00.749Z,-0.80
2023-02-03T05:12:28.721Z,-0.48
2023-02-03T05:14:58.022Z,-0.51
2023-02-03T05:17:27.511Z,-0.80
2023-02-03T05:19:56.206Z,-0.47
2023-02-03T05:22:24.396Z,-0.49
2023-02-03T05:24:53.769Z,-0.80
2023-02-03T05:27:22.183Z,-0.81
2023-02-03T05:29:50.838Z,-0.54
2023-02-03T05:32:18.867Z,-0.59
2023-02-03T05:34:47.411Z,-0.55
2023-02-03T05:37:15.922Z,-0.54
2023-02-03T05:39:43.801Z,-0.56
2023-02-03T05:42:11.743Z,-0.89
2023-02-03T05:44:39.608Z,-0.56
2023-02-03T05:47:09.490Z,-1.06
2023-02-03T05:49:37.874Z,-0.86
2023-02-03T05:52:05.982Z,-0.61
2023-02-03T05:54:34.014Z,-0.71
2023-02-03T05:57:02.132Z,-0.77
2023-02-03T05:59:30.419Z,-1.15
2023-02-03T06:01:58.869Z,-0.92
2023-02-03T06:04:27.262Z,-0.98
2023-02-03T06:06:55.909Z,-1.12
2023-02-03T06:09:24.445Z,-1.15
2023-02-03T06:11:52.553Z,-1.09
2023-02-03T06:14:20.572Z,-1.35
2023-02-03T06:16:48.883Z,-1.12
2023-02-03T06:19:17.072Z,-1.08
2023-02-03T06:21:45.515Z,-1.05
2023-02-03T06:24:14.266Z,-0.99
2023-02-03T06:26:42.370Z,-0.98
2023-02-03T06:29:10.320Z,-1.01
2023-02-03T06:31:38.508Z,-0.98
2023-02-03T06:34:06.527Z,-0.96
2023-02-03T06:36:34.718Z,-0.96
2023-02-03T06:39:02.672Z,-0.93
2023-02-03T06:41:31.301Z,-1.24
2023-02-03T06:43:59.503Z,-0.89
2023-02-03T06:46:30.308Z,-0.89
2023-02-03T06:48:59.041Z,-1.27
2023-02-03T06:51:29.631Z,-0.96
2023-02-03T06:53:58.906Z,-0.95
2023-02-03T06:56:27.089Z,-1.32
2023-02-03T06:58:55.340Z,-0.99
2023-02-03T07:01:23.862Z,-0.97
2023-02-03T07:03:52.457Z,-0.96
2023-02-03T07:06:20.377Z,-0.95
2023-02-03T07:08:48.923Z,-0.83
2023-02-03T07:11:17.312Z,-1.66
2023-02-03T07:13:46.164Z,-1.45
2023-02-03T07:16:14.630Z,-0.67
2023-02-03T07:18:47.280Z,-0.59
2023-02-03T07:21:17.983Z,-0.64
2023-02-03T07:23:49.954Z,-0.57
2023-02-03T07:26:19.214Z,-0.32
2023-02-03T07:28:47.420Z,-0.07
2023-02-03T07:31:16.395Z,0.13
2023-02-03T07:33:44.837Z,0.17
2023-02-03T07:36:12.868Z,0.30
2023-02-03T07:38:41.371Z,0.60
2023-02-03T07:41:09.535Z,0.48
2023-02-03T07:43:37.802Z,0.66
2023-02-03T07:46:06.200Z,0.95
2023-02-03T07:48:35.765Z,0.93
2023-02-03T07:51:04.082Z,0.91
2023-02-03T07:53:32.561Z,0.45
2023-02-03T07:56:02.932Z,0.19
2023-02-03T07:58:32.104Z,0.19
2023-02-03T08:01:00.576Z,0.16
2023-02-03T08:03:28.601Z,0.12
2023-02-03T08:05:56.583Z,0.03
2023-02-03T08:08:24.719Z,-0.14
2023-02-03T08:10:55.174Z,-0.06
2023-02-03T08:13:23.238Z,-0.61
2023-02-03T08:15:51.753Z,-0.04
2023-02-03T08:18:20.544Z,0.35
2023-02-03T08:20:49.187Z,0.48
2023-02-03T08:23:17.726Z,0.92
2023-02-03T08:25:46.115Z,1.16
2023-02-03T08:28:14.475Z,1.25
2023-02-03T08:30:42.875Z,1.42
2023-02-03T08:33:11.288Z,1.50
2023-02-03T08:35:40.199Z,1.18
2023-02-03T08:38:08.665Z,1.89
2023-02-03T08:40:38.044Z,1.96
2023-02-03T08:43:07.269Z,1.45
2023-02-03T08:45:37.057Z,1.25
2023-02-03T08:48:05.562Z,1.28
2023-02-03T08:50:34.208Z,1.03
2023-02-03T08:53:05.237Z,0.99
2023-02-03T08:55:34.680Z,0.78
2023-02-03T08:58:03.204Z,0.78
2023-02-03T09:00:31.865Z,0.82
2023-02-03T09:02:59.973Z,0.85
2023-02-03T09:05:30.140Z,1.05
2023-02-03T09:07:59.120Z,1.14
2023-02-03T09:10:28.141Z,1.06
2023-02-03T09:12:57.185Z,0.57
2023-02-03T09:15:25.881Z,0.54
2023-02-03T09:17:55.716Z,0.90
2023-02-03T09:20:26.975Z,0.84
2023-02-03T09:22:59.744Z,-0.02
2023-02-03T09:25:27.847Z,1.06
2023-02-03T09:27:56.188Z,1.26
2023-02-03T09:30:24.694Z,1.53
2023-02-03T09:32:56.732Z,1.56
2023-02-03T09:35:29.620Z,1.78
2023-02-03T09:38:00.906Z,1.48
2023-02-03T09:40:39.843Z,1.41
2023-02-03T09:43:28.781Z,1.36
2023-02-03T09:46:12.976Z,1.19
2023-02-03T09:48:54.504Z,1.37
2023-02-03T09:52:10.640Z,1.17
2023-02-03T09:54:51.916Z,0.97
2023-02-03T09:57:30.163Z,1.24
2023-02-03T10:00:14.130Z,0.97
2023-02-03T10:03:03.471Z,1.33
2023-02-03T10:05:56.005Z,1.33
2023-02-03T10:08:53.599Z,1.44
2023-02-03T10:12:37.579Z,1.39
2023-02-03T10:15:39.632Z,1.12
2023-02-03T10:18:15.000Z,1.10
2023-02-03T10:20:59.468Z,1.54
2023-02-03T10:23:37.319Z,1.67
2023-02-03T10:26:16.283Z,1.47
2023-02-03T10:28:58.311Z,1.73
2023-02-03T10:31:31.428Z,1.32
2023-02-03T10:34:14.568Z,1.40
2023-02-03T10:36:58.190Z,1.45
2023-02-03T10:39:41.402Z,1.31
2023-02-03T10:42:11.934Z,1.47
2023-02-03T10:44:42.215Z,1.69
2023-02-03T10:47:37.898Z,1.94
2023-02-03T10:50:31.705Z,2.30
2023-02-03T10:53:18.823Z,2.42
2023-02-03T10:55:50.577Z,2.06
2023-02-03T10:58:27.568Z,1.73
2023-02-03T11:01:19.871Z,1.39
2023-02-03T11:04:05.844Z,1.24
2023-02-03T11:06:37.407Z,1.32
2023-02-03T11:09:31.791Z,1.17
2023-02-03T11:12:23.360Z,1.46
2023-02-03T11:14:54.380Z,1.55
2023-02-03T11:17:27.358Z,1.48
2023-02-03T11:20:17.493Z,1.30
2023-02-03T11:22:45.943Z,1.27
2023-02-03T11:25:30.080Z,1.37
2023-02-03T11:28:07.502Z,1.88
2023-02-03T11:30:35.884Z,2.23
2023-02-03T11:33:16.401Z,2.21
2023-02-03T11:35:58.602Z,1.65
2023-02-03T11:38:37.063Z,2.01
2023-02-03T11:41:06.966Z,1.70
2023-02-03T11:43:36.249Z,2.01
2023-02-03T11:46:10.154Z,2.06
2023-02-03T11:49:06.988Z,1.70
2023-02-03T11:52:02.398Z,2.04
2023-02-03T11:54:47.233Z,1.93
2023-02-03T11:57:53.433Z,1.75
2023-02-03T12:00:31.457Z,1.49
2023-02-03T12:03:38.560Z,1.15
2023-02-03T12:06:44.121Z,1.31
2023-02-03T12:09:33.967Z,1.68
2023-02-03T12:12:10.763Z,1.65
2023-02-03T12:15:03.502Z,1.60
2023-02-03T12:17:50.160Z,1.51
2023-02-03T12:21:03.642Z,1.34
2023-02-03T12:24:15.049Z,1.01
2023-02-03T12:27:14.167Z,1.16
2023-02-03T12:29:52.989Z,0.81
2023-02-03T12:32:37.088Z,1.37
2023-02-03T12:35:48.969Z,1.27
2023-02-03T12:38:40.467Z,1.18
2023-02-03T12:41:17.075Z,1.12
2023-02-03T12:43:50.877Z,1.20
2023-02-03T12:46:30.128Z,1.03
2023-02-03T12:49:40.703Z,0.90
2023-02-03T12:52:21.649Z,0.55
2023-02-03T12:55:25.862Z,0.72
2023-02-03T12:58:26.224Z,0.68
2023-02-03T13:01:09.087Z,0.82
2023-02-03T13:03:52.098Z,0.74
2023-02-03T13:06:55.744Z,0.69
2023-02-03T13:09:41.669Z,0.56
2023-02-03T13:12:37.304Z,0.78
2023-02-03T13:15:37.173Z,0.67
2023-02-03T13:18:37.911Z,0.89
2023-02-03T13:21:09.549Z,0.80
2023-02-03T13:23:48.162Z,0.59
2023-02-03T13:26:28.469Z,0.52
2023-02-03T13:29:35.303Z,0.44
2023-02-03T13:32:24.716Z,0.70
2023-02-03T13:35:24.789Z,0.83
2023-02-03T13:38:34.032Z,0.76
2023-02-03T13:41:30.291Z,0.86
2023-02-03T13:43:59.560Z,0.52
2023-02-03T13:46:36.101Z,0.85
2023-02-03T13:49:08.011Z,0.17
2023-02-03T13:51:46.460Z,0.77
2023-02-03T13:54:30.115Z,0.54
2023-02-03T13:57:02.534Z,0.76
2023-02-03T13:59:43.744Z,0.78
2023-02-03T14:02:24.885Z,0.82
2023-02-03T14:04:56.355Z,0.80
2023-02-03T14:07:27.362Z,0.43
2023-02-03T14:10:13.816Z,0.76
2023-02-03T14:12:51.664Z,0.75
2023-02-03T14:15:32.302Z,0.74
2023-02-03T14:18:33.137Z,0.67
2023-02-03T14:21:17.822Z,0.65
2023-02-03T14:24:13.102Z,0.54
2023-02-03T14:26:54.223Z,0.46
2023-02-03T14:29:33.351Z,0.62
2023-02-03T14:32:10.414Z,0.65
2023-02-03T14:34:49.305Z,0.29
2023-02-03T14:37:32.331Z,0.64
2023-02-03T14:40:26.387Z,0.64
2023-02-03T14:43:34.934Z,0.32
2023-02-03T14:47:10.968Z,0.57
2023-02-03T14:50:00.808Z,0.53
2023-02-03T14:53:23.255Z,0.49
2023-02-03T14:55:56.509Z,0.46
2023-02-03T14:58:48.595Z,0.19
2023-02-03T15:01:45.915Z,0.39
2023-02-03T15:04:13.904Z,0.37
2023-02-03T15:06:53.325Z,0.36
2023-02-03T15:09:49.754Z,0.37
2023-02-03T15:12:27.756Z,0.05
2023-02-03T15:15:27.361Z,0.32
2023-02-03T15:17:59.983Z,0.30
2023-02-03T15:20:41.821Z,0.03
2023-02-03T15:23:21.469Z,0.06
2023-02-03T15:25:57.271Z,0.36
2023-02-03T15:28:28.150Z,0.33
2023-02-03T15:31:01.275Z,0.34
2023-02-03T15:33:33.127Z,0.20
2023-02-03T15:36:15.414Z,0.11
2023-02-03T15:38:49.082Z,0.32
2023-02-03T15:41:26.893Z,0.15
2023-02-03T15:44:10.485Z,0.24
2023-02-03T15:46:45.754Z,0.10
2023-02-03T15:49:25.079Z,0.34
2023-02-03T15:52:26.458Z,0.35
2023-02-03T15:55:17.822Z,0.09
2023-02-03T15:57:49.837Z,0.35
2023-02-03T16:00:28.936Z,0.35
2023-02-03T16:03:00.281Z,0.27
2023-02-03T16:05:37.574Z,0.12
2023-02-03T16:08:31.454Z,0.32
2023-02-03T16:11:00.244Z,0.15
2023-02-03T16:13:31.007Z,0.13
2023-02-03T16:16:17.798Z,0.04
2023-02-03T16:19:15.355Z,-0.07
2023-02-03T16:21:52.791Z,-0.14
2023-02-03T16:24:44.928Z,-0.22
2023-02-03T16:27:28.281Z,-0.37
2023-02-03T16:30:43.917Z,-0.37
2023-02-03T16:33:35.811Z,-0.45
2023-02-03T16:36:33.321Z,-0.60
2023-02-03T16:39:31.265Z,-0.81
2023-02-03T16:42:19.855Z,-0.58
2023-02-03T16:45:08.592Z,-0.63
2023-02-03T16:47:57.894Z,-0.65
2023-02-03T16:50:44.763Z,-0.68
2023-02-03T16:53:35.910Z,-0.78
2023-02-03T16:56:05.377Z,-1.01
2023-02-03T16:58:33.694Z,-0.83
2023-02-03T17:01:05.577Z,-0.86
2023-02-03T17:03:37.123Z,-0.74
2023-02-03T17:06:11.732Z,-1.01
2023-02-03T17:08:42.545Z,-0.73
2023-02-03T17:11:23.829Z,-0.72
2023-02-03T17:13:52.347Z,-0.76
2023-02-03T17:16:23.629Z,-1.05
2023-02-03T17:18:54.995Z,-0.76
2023-02-03T17:21:27.712Z,-0.78
2023-02-03T17:23:56.118Z,-0.84
2023-02-03T17:26:24.339Z,-1.11
2023-02-03T17:28:52.798Z,-1.15
2023-02-03T17:31:21.932Z,-0.98
2023-02-03T17:33:53.710Z,-0.90
2023-02-03T17:36:22.050Z,-0.83
2023-02-03T17:55:34.437Z,-0.85
2023-02-03T17:58:02.547Z,-0.92
2023-02-03T18:00:33.250Z,-1.19
2023-02-03T18:03:01.861Z,-0.87
2023-02-03T18:05:30.441Z,-0.91
2023-02-03T18:08:03.030Z,-0.91
2023-02-03T18:10:38.929Z,-0.98
2023-02-03T18:13:07.188Z,-0.93
2023-02-03T18:15:38.054Z,-1.21
2023-02-03T18:18:08.248Z,-0.93
2023-02-03T18:20:37.053Z,-0.91
2023-02-03T18:23:05.522Z,-1.11
2023-02-03T18:25:36.119Z,-0.89
2023-02-03T18:28:04.434Z,-0.94
2023-02-03T18:30:33.043Z,-0.86
2023-02-03T18:33:02.395Z,-0.89
2023-02-03T18:35:32.599Z,-0.85
2023-02-03T18:38:00.605Z,-0.86
2023-02-03T18:40:31.562Z,-0.83
2023-02-03T18:43:00.021Z,-0.83
2023-02-03T18:45:29.196Z,-0.83
2023-02-03T18:47:57.530Z,-0.94
2023-02-03T18:50:25.766Z,-0.87
2023-02-03T18:52:55.237Z,-0.82
2023-02-03T18:55:24.568Z,-0.83
2023-02-03T18:57:52.793Z,-0.82
2023-02-03T19:00:21.598Z,-0.85
2023-02-03T19:02:51.358Z,-1.27
2023-02-03T19:05:19.740Z,-1.19
2023-02-03T19:07:48.354Z,-0.82
2023-02-03T19:10:18.057Z,-0.89
2023-02-03T19:12:46.726Z,-0.82
2023-02-03T19:15:15.096Z,-0.83
2023-02-03T19:17:43.507Z,-0.95
2023-02-03T19:20:13.126Z,-1.12
2023-02-03T19:22:41.491Z,-0.81
2023-02-03T19:25:10.057Z,-0.81
2023-02-03T19:27:38.404Z,-0.97
2023-02-03T19:30:07.122Z,-0.74
2023-02-03T19:32:35.888Z,-0.77
2023-02-03T19:35:04.006Z,-0.94
2023-02-03T19:37:32.225Z,-0.72
2023-02-03T19:40:01.176Z,-0.73
2023-02-03T19:42:30.661Z,-0.99
2023-02-03T19:44:58.669Z,-0.86
2023-02-03T19:47:27.269Z,-0.73
2023-02-03T19:49:55.582Z,-0.73
2023-02-03T19:52:24.264Z,-0.72
2023-02-03T19:54:54.131Z,-0.76
2023-02-03T19:57:22.412Z,-0.84
2023-02-03T19:59:57.357Z,-0.92
2023-02-03T20:02:27.128Z,-0.80
2023-02-03T20:04:55.430Z,-0.74
2023-02-03T20:07:27.860Z,-0.73
2023-02-03T20:09:56.052Z,-0.74
2023-02-03T20:12:25.589Z,-0.74
2023-02-03T20:14:54.274Z,-0.78
2023-02-03T20:20:05.333Z,-0.76
2023-02-03T20:22:33.354Z,-0.77
2023-02-03T20:25:01.901Z,-0.93
2023-02-03T20:27:31.318Z,-0.71
2023-02-03T20:30:00.125Z,-0.74
2023-02-03T20:32:28.838Z,-0.81
2023-02-03T20:34:58.441Z,-0.76
2023-02-03T20:37:27.252Z,-0.71
2023-02-03T20:39:55.679Z,-0.67
2023-02-03T20:42:24.614Z,-0.70
2023-02-03T20:44:52.952Z,-0.88
2023-02-03T20:47:22.920Z,-0.69
2023-02-03T20:49:51.341Z,-0.89
2023-02-03T20:52:21.452Z,-0.92
2023-02-03T20:54:49.798Z,-0.92
2023-02-03T20:57:19.926Z,-0.71
2023-02-03T20:59:48.588Z,-0.76
2023-02-03T21:02:34.486Z,-0.71
2023-02-03T21:05:22.729Z,-0.94
2023-02-03T21:07:51.375Z,-0.94
2023-02-03T21:10:22.946Z,-0.93
2023-02-03T21:12:52.460Z,-0.72
2023-02-03T21:15:30.398Z,-0.73
2023-02-03T21:17:59.045Z,-0.89
2023-02-03T21:20:32.095Z,-0.66
2023-02-03T21:23:00.935Z,-0.89
2023-02-03T21:25:33.342Z,-0.67
2023-02-03T21:28:01.946Z,-0.68
2023-02-03T21:30:38.043Z,-0.91
2023-02-03T21:33:29.903Z,-0.64
2023-02-03T21:35:58.589Z,-0.62
2023-02-03T21:38:33.443Z,-0.87
2023-02-03T21:41:02.577Z,-0.83
2023-02-03T21:43:31.430Z,-0.71
2023-02-03T21:46:00.164Z,-0.66
2023-02-03T21:48:39.323Z,-0.65
2023-02-03T21:51:17.503Z,-0.68
2023-02-03T21:54:00.804Z,-0.74
2023-02-03T21:56:42.256Z,-0.67
2023-02-03T21:59:42.863Z,-0.66
2023-02-03T22:02:32.913Z,-0.63
2023-02-03T22:05:02.810Z,-0.63
2023-02-03T22:07:31.282Z,-0.95
2023-02-03T22:10:00.103Z,-0.71
2023-02-03T22:12:32.026Z,-0.87
2023-02-03T22:15:07.970Z,-0.65
2023-02-03T22:17:38.250Z,-0.62
2023-02-03T22:20:08.040Z,-0.59
2023-02-03T22:22:37.590Z,-0.65
2023-02-03T22:25:07.200Z,-0.54
2023-02-03T22:27:38.783Z,-0.69
2023-02-03T22:30:09.398Z,-0.61
2023-02-03T22:32:38.440Z,-0.50
2023-02-03T22:35:11.037Z,-0.54
2023-02-03T22:37:42.896Z,-0.47
2023-02-03T22:40:13.269Z,-0.44
2023-02-03T22:42:42.184Z,-0.49
2023-02-03T22:45:13.182Z,-0.53
2023-02-03T22:47:43.385Z,-0.63
2023-02-03T22:50:17.430Z,-0.63
2023-02-03T22:52:51.208Z,-0.60
2023-02-03T22:55:20.783Z,-0.59
2023-02-03T22:57:50.880Z,-0.89
2023-02-03T23:00:23.279Z,-0.56
2023-02-03T23:02:52.046Z,-0.58
2023-02-03T23:05:21.917Z,-0.54
2023-02-03T23:07:51.649Z,-0.59
2023-02-03T23:10:24.821Z,-0.59
2023-02-03T23:12:54.167Z,-0.47
2023-02-03T23:15:22.989Z,-0.48
2023-02-03T23:17:51.590Z,-0.65
2023-02-03T23:20:21.350Z,-0.53
2023-02-03T23:22:51.243Z,-0.76
2023-02-03T23:25:19.956Z,-0.51
2023-02-03T23:27:49.345Z,-0.47
2023-02-03T23:30:18.071Z,-0.45
2023-02-03T23:32:46.892Z,-0.45
2023-02-03T23:35:36.506Z,-0.44
2023-02-03T23:38:05.267Z,-0.50
2023-02-03T23:40:34.513Z,-0.51
2023-02-03T23:43:03.600Z,-0.48
2023-02-03T23:45:32.025Z,-0.68
2023-02-03T23:48:00.980Z,-0.50
2023-02-03T23:50:30.153Z,-0.56
2023-02-03T23:52:59.262Z,-0.62
2023-02-03T23:55:27.978Z,-0.79
2023-02-03T23:57:57.702Z,-0.54
